Time;durP1;ratioP1;P1;durP2;ratioP2;P2;SDS_P1;SDS_P2;PMS_P1;PMS_P2;Temp;Humidity;BMP_temperature;BMP_pressure;BME280_temperature;BME280_humidity;BME280_pressure;Samples;Min_cycle;Max_cycle;Signal;HPM_P1;HPM_P2
2023/11/20 00:01:12;;;;;;;2.70;2.30;;;;;;;18.26;51.42;97391.63;105599;1260;74553;-40
2023/11/20 00:03:39;;;;;;;2.50;2.30;;;;;;;18.26;51.48;97393.41;105730;1260;65895;-40
2023/11/20 00:06:07;;;;;;;2.90;2.60;;;;;;;18.26;51.46;97390.77;105567;1257;72515;-40
2023/11/20 00:08:34;;;;;;;2.80;2.50;;;;;;;18.25;51.44;97393.39;105581;1266;61353;-40
2023/11/20 00:11:00;;;;;;;2.40;2.20;;;;;;;18.25;51.49;97393.86;105456;1258;61238;-40
2023/11/20 00:13:27;;;;;;;2.70;2.50;;;;;;;18.25;51.49;97393.16;105362;1255;74596;-40
2023/11/20 00:15:53;;;;;;;3.40;2.70;;;;;;;18.25;51.53;97392.54;105341;1260;66050;-40
2023/11/20 00:18:20;;;;;;;2.60;2.30;;;;;;;18.25;51.47;97392.52;105546;1257;72373;-40
2023/11/20 00:20:47;;;;;;;2.50;2.30;;;;;;;18.24;51.51;97391.28;105549;1259;61202;-40
2023/11/20 00:23:13;;;;;;;2.50;2.20;;;;;;;18.25;51.51;97391.45;105460;1257;61326;-40
2023/11/20 00:25:40;;;;;;;3.10;2.70;;;;;;;18.24;51.44;97389.20;105539;1260;74328;-40
2023/11/20 00:28:08;;;;;;;2.60;2.40;;;;;;;18.24;51.51;97391.74;105634;1259;66149;-39
2023/11/20 00:30:34;;;;;;;2.70;2.40;;;;;;;18.24;51.49;97391.36;105584;1257;72582;-39
2023/11/20 00:33:03;;;;;;;2.40;2.20;;;;;;;18.24;51.48;97391.80;105686;1259;61368;-39
2023/11/20 00:35:30;;;;;;;3.00;2.40;;;;;;;18.24;51.45;97392.27;105630;1259;61250;-39
2023/11/20 00:37:56;;;;;;;2.50;2.30;;;;;;;18.24;51.46;97386.31;105594;1261;74470;-40
2023/11/20 00:40:23;;;;;;;2.40;2.20;;;;;;;18.24;51.44;97386.61;105590;1260;65392;-40
2023/11/20 00:42:50;;;;;;;2.70;2.40;;;;;;;18.23;51.53;97384.75;105591;1257;72399;-40
2023/11/20 00:45:17;;;;;;;2.60;2.30;;;;;;;18.23;51.51;97384.05;105588;1260;61368;-40
2023/11/20 00:47:43;;;;;;;2.60;2.10;;;;;;;18.23;51.49;97381.73;105262;1255;61180;-40
2023/11/20 00:50:10;;;;;;;2.80;2.20;;;;;;;18.23;51.47;97383.90;105434;1257;74591;-40
2023/11/20 00:52:37;;;;;;;2.60;2.20;;;;;;;18.23;51.48;97377.94;105700;1260;65239;-40
2023/11/20 00:55:10;;;;;;;2.20;2.00;;;;;;;18.22;51.55;97376.14;105603;1257;72599;-40
2023/11/20 00:57:37;;;;;;;2.40;2.20;;;;;;;18.23;51.48;97376.92;105565;1259;61331;-40
2023/11/20 01:00:11;;;;;;;2.50;2.20;;;;;;;18.22;51.49;97374.29;105595;1258;61239;-40
2023/11/20 01:02:38;;;;;;;2.80;2.30;;;;;;;18.22;51.55;97371.73;105634;1260;75151;-40
2023/11/20 01:05:07;;;;;;;2.50;2.30;;;;;;;18.22;51.49;97364.42;105517;1257;66209;-40
2023/11/20 01:07:34;;;;;;;2.80;2.10;;;;;;;18.22;51.49;97362.81;105757;1257;71458;-40
2023/11/20 01:10:01;;;;;;;2.80;2.50;;;;;;;18.22;51.43;97364.49;105593;1259;61234;-40
2023/11/20 01:12:29;;;;;;;2.70;2.40;;;;;;;18.22;51.48;97363.19;105905;1257;61317;-40
2023/11/20 01:14:57;;;;;;;2.50;2.30;;;;;;;18.22;51.48;97361.88;105557;1260;74359;-40
2023/11/20 01:17:24;;;;;;;2.40;2.20;;;;;;;18.21;51.53;97360.23;105991;1254;66174;-40
2023/11/20 01:19:50;;;;;;;2.40;2.20;;;;;;;18.22;51.45;97357.30;105602;1257;72787;-39
2023/11/20 01:22:17;;;;;;;2.80;2.10;;;;;;;18.21;51.48;97356.60;105912;1255;61356;-41
2023/11/20 01:24:44;;;;;;;2.70;2.30;;;;;;;18.22;51.51;97357.23;105523;1257;61289;-41
2023/11/20 01:27:10;;;;;;;2.80;2.50;;;;;;;18.22;51.50;97355.98;105591;1260;74717;-41
2023/11/20 01:29:39;;;;;;;2.70;2.50;;;;;;;18.21;51.49;97355.51;105633;1258;66018;-41
2023/11/20 01:32:06;;;;;;;3.20;2.50;;;;;;;18.21;51.40;97355.58;105524;1257;72342;-41
2023/11/20 01:34:33;;;;;;;2.60;2.20;;;;;;;18.21;51.45;97353.95;105565;1260;61359;-41
2023/11/20 01:36:59;;;;;;;2.60;2.40;;;;;;;18.21;51.39;97352.11;105256;1255;61573;-41
2023/11/20 01:39:26;;;;;;;2.40;2.20;;;;;;;18.21;51.46;97349.07;105535;1255;74656;-40
2023/11/20 01:41:53;;;;;;;4.10;2.30;;;;;;;18.21;51.50;97352.63;105313;1261;65870;-40
2023/11/20 01:44:19;;;;;;;2.60;2.40;;;;;;;18.20;51.49;97352.70;105424;1255;72628;-40
2023/11/20 01:46:46;;;;;;;2.90;2.60;;;;;;;18.21;51.39;97345.73;105592;1259;61234;-40
2023/11/20 01:49:13;;;;;;;2.10;1.90;;;;;;;18.21;51.44;97345.90;105459;1256;61236;-40
2023/11/20 01:51:40;;;;;;;2.50;2.30;;;;;;;18.20;51.46;97344.95;105560;1259;74567;-39
2023/11/20 01:54:06;;;;;;;2.60;2.40;;;;;;;18.21;51.39;97343.41;105684;1261;66310;-40
2023/11/20 01:56:33;;;;;;;2.30;2.10;;;;;;;18.21;51.39;97346.04;105391;1257;72483;-40
2023/11/20 01:59:04;;;;;;;2.40;2.20;;;;;;;18.21;51.50;97344.49;105491;1260;61234;-40
2023/11/20 02:01:32;;;;;;;2.30;2.10;;;;;;;18.20;51.53;97343.17;105486;1259;61305;-40
2023/11/20 02:04:00;;;;;;;2.40;2.20;;;;;;;18.20;51.44;97343.33;105650;1259;73971;-40
2023/11/20 02:06:26;;;;;;;2.60;2.10;;;;;;;18.20;51.42;97344.02;105495;1260;65594;-40
2023/11/20 02:08:53;;;;;;;2.60;2.20;;;;;;;18.20;51.40;97341.62;105465;1258;72717;-40
2023/11/20 02:11:20;;;;;;;2.90;2.40;;;;;;;18.20;51.37;97344.64;105446;1261;61349;-40
2023/11/20 02:13:49;;;;;;;2.30;2.10;;;;;;;18.20;51.40;97345.95;105363;1254;61324;-40
2023/11/20 02:16:16;;;;;;;2.70;2.30;;;;;;;18.20;51.35;97344.55;105605;1259;74594;-40
2023/11/20 02:18:43;;;;;;;2.40;2.20;;;;;;;18.20;51.46;97341.78;105592;1259;65174;-39
2023/11/20 02:21:09;;;;;;;2.20;2.00;;;;;;;18.20;51.45;97337.45;105484;1258;72544;-40
2023/11/20 02:23:36;;;;;;;2.40;2.20;;;;;;;18.19;51.44;97335.02;105505;1260;61266;-40
2023/11/20 02:26:18;;;;;;;3.30;2.10;;;;;;;18.20;51.43;97332.09;105394;1257;61349;-42
2023/11/20 02:28:53;;;;;;;2.10;1.90;;;;;;;18.20;51.41;97330.30;105461;1260;74639;-41
2023/11/20 02:31:19;;;;;;;2.40;2.20;;;;;;;18.19;51.36;97328.73;105581;1260;64947;-40
2023/11/20 02:33:46;;;;;;;2.30;2.10;;;;;;;18.19;51.40;97327.56;105518;1254;72482;-40
2023/11/20 02:36:13;;;;;;;2.30;2.10;;;;;;;18.19;51.40;97328.89;105549;1268;61356;-40
2023/11/20 02:38:41;;;;;;;2.40;2.20;;;;;;;18.19;51.42;97327.81;105486;1257;61346;-40
2023/11/20 02:41:08;;;;;;;2.30;2.10;;;;;;;18.19;51.35;97330.14;105661;1255;74362;-40
2023/11/20 02:43:38;;;;;;;2.50;2.00;;;;;;;18.19;51.35;97328.52;105620;1259;65565;-40
2023/11/20 02:46:06;;;;;;;2.40;2.10;;;;;;;18.19;51.36;97326.71;105445;1257;72377;-40
2023/11/20 02:48:33;;;;;;;2.20;2.00;;;;;;;18.18;51.34;97324.63;105381;1260;61891;-40
2023/11/20 02:51:01;;;;;;;2.60;2.10;;;;;;;18.18;51.42;97329.42;105400;1257;61316;-40
2023/11/20 02:53:28;;;;;;;2.50;2.30;;;;;;;18.18;51.39;97328.19;105609;1256;74891;-40
2023/11/20 02:55:56;;;;;;;2.40;2.20;;;;;;;18.18;51.41;97329.81;105654;1254;66316;-40
2023/11/20 02:58:23;;;;;;;2.40;2.20;;;;;;;18.18;51.43;97330.89;105624;1257;72575;-40
2023/11/20 03:00:50;;;;;;;2.20;2.00;;;;;;;18.18;51.39;97331.36;105520;1259;61166;-40
2023/11/20 03:03:17;;;;;;;2.30;2.10;;;;;;;18.18;51.37;97330.59;105632;1259;61253;-39
2023/11/20 03:05:44;;;;;;;2.30;2.00;;;;;;;18.19;51.34;97330.28;105354;1254;74380;-41
2023/11/20 03:08:11;;;;;;;2.30;1.90;;;;;;;18.18;51.34;97325.09;105518;1259;65853;-41
2023/11/20 03:10:39;;;;;;;2.30;2.10;;;;;;;18.18;51.44;97321.83;105454;1254;72941;-42
2023/11/20 03:13:06;;;;;;;2.60;1.90;;;;;;;18.18;51.34;97321.84;105632;1259;61349;-41
2023/11/20 03:15:33;;;;;;;2.60;2.20;;;;;;;18.18;51.31;97320.91;105514;1257;61723;-42
2023/11/20 03:18:00;;;;;;;2.50;2.20;;;;;;;18.18;51.35;97321.90;105479;1260;75289;-39
2023/11/20 03:20:28;;;;;;;2.30;1.90;;;;;;;18.18;51.37;97320.91;105641;1259;66326;-40
2023/11/20 03:22:55;;;;;;;2.30;2.10;;;;;;;18.17;51.43;97317.96;105555;1257;71918;-40
2023/11/20 03:25:21;;;;;;;2.20;2.00;;;;;;;18.18;51.37;97314.16;105502;1259;61241;-40
2023/11/20 03:27:48;;;;;;;2.00;1.80;;;;;;;18.18;51.32;97310.99;105650;1259;61207;-40
2023/11/20 03:30:14;;;;;;;2.10;1.90;;;;;;;18.17;51.35;97308.80;105563;1255;74668;-40
2023/11/20 03:32:41;;;;;;;2.50;2.10;;;;;;;18.17;51.42;97307.02;105697;1260;66352;-39
2023/11/20 03:35:09;;;;;;;2.60;2.20;;;;;;;18.17;51.35;97302.75;105629;1254;72846;-40
2023/11/20 03:37:35;;;;;;;4.00;2.20;;;;;;;18.17;51.32;97297.80;105654;1259;61241;-40
2023/11/20 03:40:03;;;;;;;2.90;1.80;;;;;;;18.17;51.35;97295.64;105608;1257;61352;-39
2023/11/20 03:42:30;;;;;;;3.10;2.10;;;;;;;18.17;51.29;97289.59;105591;1259;74656;-40
2023/11/20 03:44:57;;;;;;;3.00;2.30;;;;;;;18.16;51.33;97290.90;105607;1258;65890;-40
2023/11/20 03:47:23;;;;;;;2.20;2.00;;;;;;;18.16;51.32;97289.35;105603;1257;72895;-40
2023/11/20 03:49:50;;;;;;;3.10;2.00;;;;;;;18.17;51.30;97288.35;105561;1259;61336;-40
2023/11/20 03:52:17;;;;;;;2.50;2.30;;;;;;;18.16;51.29;97284.94;105347;1257;61314;-41
2023/11/20 03:54:43;;;;;;;2.50;2.20;;;;;;;18.16;51.33;97285.71;105588;1257;74566;-40
2023/11/20 03:57:12;;;;;;;2.20;2.00;;;;;;;18.16;51.26;97285.02;106116;1256;66054;-40
2023/11/20 03:59:38;;;;;;;2.30;2.10;;;;;;;18.17;51.33;97286.04;105591;1257;72593;-40
2023/11/20 04:02:06;;;;;;;2.30;2.10;;;;;;;18.16;51.33;97283.08;105556;1259;61208;-41
2023/11/20 04:04:32;;;;;;;2.00;1.80;;;;;;;18.16;51.33;97278.89;105554;1257;61358;-40
2023/11/20 04:06:59;;;;;;;2.20;2.00;;;;;;;18.16;51.31;97278.74;105630;1259;74603;-40
2023/11/20 04:09:26;;;;;;;2.80;2.30;;;;;;;18.16;51.30;97277.89;105596;1257;65571;-40
2023/11/20 04:11:53;;;;;;;2.20;2.00;;;;;;;18.16;51.33;97285.09;105597;1260;73070;-40
2023/11/20 04:14:21;;;;;;;2.50;2.10;;;;;;;18.16;51.33;97283.30;105572;1259;61298;-40
2023/11/20 04:16:48;;;;;;;4.40;2.20;;;;;;;18.15;51.35;97283.92;105573;1257;61287;-39
2023/11/20 04:19:15;;;;;;;3.20;1.90;;;;;;;18.16;51.33;97283.77;105609;1257;74926;-41
2023/11/20 04:21:43;;;;;;;2.10;1.90;;;;;;;18.16;51.30;97288.73;105627;1259;65976;-41
2023/11/20 04:24:10;;;;;;;2.50;2.10;;;;;;;18.16;51.25;97285.09;105616;1257;72625;-39
2023/11/20 04:26:36;;;;;;;2.20;1.80;;;;;;;18.16;51.29;97278.89;105548;1259;61248;-41
2023/11/20 04:29:03;;;;;;;3.20;2.00;;;;;;;18.16;51.32;97280.06;105683;1254;61269;-41
2023/11/20 04:31:30;;;;;;;2.30;2.00;;;;;;;18.16;51.29;97277.27;105539;1255;74788;-42
2023/11/20 04:33:57;;;;;;;3.30;2.10;;;;;;;18.16;51.22;97277.03;105554;1259;65647;-41
2023/11/20 04:36:23;;;;;;;2.60;2.00;;;;;;;18.15;51.26;97276.08;105665;1257;72946;-39
2023/11/20 04:38:50;;;;;;;2.10;1.90;;;;;;;18.15;51.29;97274.93;105483;1260;61264;-40
2023/11/20 04:41:16;;;;;;;2.20;2.00;;;;;;;18.15;51.31;97277.80;105613;1255;61317;-40
2023/11/20 04:43:43;;;;;;;3.10;2.10;;;;;;;18.15;51.32;97278.02;105605;1259;74440;-40
2023/11/20 04:46:10;;;;;;;2.30;2.00;;;;;;;18.15;51.21;97275.25;105531;1259;66374;-39
2023/11/20 04:48:37;;;;;;;2.10;1.90;;;;;;;18.15;51.31;97275.25;105380;1257;72280;-40
2023/11/20 04:51:04;;;;;;;2.30;1.90;;;;;;;18.15;51.33;97268.59;105479;1259;61221;-40
2023/11/20 04:53:31;;;;;;;2.30;2.10;;;;;;;18.15;51.27;97265.95;105628;1256;61352;-39
2023/11/20 04:55:57;;;;;;;3.60;2.10;;;;;;;18.15;51.31;97265.79;105539;1256;74969;-40
2023/11/20 04:58:24;;;;;;;2.90;2.10;;;;;;;18.15;51.29;97269.59;105550;1259;65540;-40
2023/11/20 05:00:51;;;;;;;2.90;1.90;;;;;;;18.15;51.25;97268.50;105669;1257;72604;-40
2023/11/20 05:03:19;;;;;;;2.00;1.80;;;;;;;18.15;51.30;97259.50;105586;1257;61225;-40
2023/11/20 05:05:45;;;;;;;2.10;1.90;;;;;;;18.15;51.23;97262.06;105607;1257;61370;-40
2023/11/20 05:08:12;;;;;;;2.50;2.10;;;;;;;18.14;51.23;97257.41;105550;1255;74632;-40
2023/11/20 05:10:39;;;;;;;2.20;1.90;;;;;;;18.15;51.25;97258.48;105593;1256;64229;-39
2023/11/20 05:13:05;;;;;;;2.10;1.90;;;;;;;18.14;51.22;97255.47;105615;1257;72419;-40
2023/11/20 05:15:32;;;;;;;3.70;2.10;;;;;;;18.14;51.29;97250.83;105639;1259;61363;-40
2023/11/20 05:17:59;;;;;;;2.50;2.10;;;;;;;18.14;51.30;97250.44;105563;1256;61595;-40
2023/11/20 05:20:26;;;;;;;2.20;2.00;;;;;;;18.13;51.23;97238.88;105495;1259;74476;-40
2023/11/20 05:22:53;;;;;;;2.50;1.80;;;;;;;18.14;51.27;97242.91;105395;1259;65602;-40
2023/11/20 05:25:19;;;;;;;3.20;2.00;;;;;;;18.13;51.20;97241.44;105467;1257;72961;-40
2023/11/20 05:27:46;;;;;;;4.20;1.70;;;;;;;18.14;51.26;97243.46;105564;1259;61363;-39
2023/11/20 05:30:13;;;;;;;2.20;1.90;;;;;;;18.14;51.25;97245.25;105594;1257;61435;-40
2023/11/20 05:32:39;;;;;;;2.10;1.90;;;;;;;18.14;51.24;97247.79;105677;1258;74383;-40
2023/11/20 05:35:06;;;;;;;1.90;1.80;;;;;;;18.13;51.29;97248.64;105567;1259;65934;-40
2023/11/20 05:37:33;;;;;;;2.10;1.80;;;;;;;18.14;51.28;97242.61;105577;1256;72957;-41
2023/11/20 05:39:59;;;;;;;2.10;1.90;;;;;;;18.14;51.29;97246.78;105468;1259;61260;-40
2023/11/20 05:42:26;;;;;;;1.80;1.70;;;;;;;18.14;51.23;97250.35;106956;1257;61136;-40
2023/11/20 05:44:54;;;;;;;2.10;1.90;;;;;;;18.14;51.26;97252.52;105276;1257;74595;-41
2023/11/20 05:47:20;;;;;;;2.10;1.90;;;;;;;18.14;51.26;97248.41;109105;1256;65437;-41
2023/11/20 05:49:47;;;;;;;2.30;2.00;;;;;;;18.14;51.29;97243.31;107776;1256;61285;-41
2023/11/20 05:52:13;;;;;;;2.10;1.90;;;;;;;18.15;51.27;97240.23;106120;1260;61247;-40
2023/11/20 05:54:40;;;;;;;2.10;1.90;;;;;;;18.15;51.25;97238.08;105300;1257;61237;-41
2023/11/20 05:57:07;;;;;;;2.00;1.80;;;;;;;18.16;51.21;97240.17;105637;1257;74481;-40
2023/11/20 05:59:34;;;;;;;2.00;1.80;;;;;;;18.16;51.19;97236.23;105451;1257;65660;-40
2023/11/20 06:02:00;;;;;;;1.90;1.70;;;;;;;18.16;51.15;97236.16;105253;1257;72531;-39
2023/11/20 06:04:27;;;;;;;3.60;1.90;;;;;;;18.16;51.20;97238.94;105330;1260;61328;-40
2023/11/20 06:06:54;;;;;;;2.10;1.60;;;;;;;18.16;51.14;97240.17;107333;1256;61110;-41
2023/11/20 06:09:21;;;;;;;2.80;1.90;;;;;;;18.16;51.20;97238.55;107646;1255;73548;-41
2023/11/20 06:11:49;;;;;;;2.10;1.90;;;;;;;18.17;51.19;97240.74;107169;1256;65551;-39
2023/11/20 06:14:16;;;;;;;2.30;1.80;;;;;;;18.17;51.17;97238.09;109148;1255;72360;-40
2023/11/20 06:16:43;;;;;;;2.50;1.90;;;;;;;18.17;51.21;97240.44;106947;1256;61250;-39
2023/11/20 06:19:10;;;;;;;2.40;2.10;;;;;;;18.18;51.28;97243.70;105446;1257;61343;-41
2023/11/20 06:21:47;;;;;;;2.90;2.30;;;;;;;18.19;51.20;97245.73;105235;1259;74426;-41
2023/11/20 06:24:15;;;;;;;2.20;2.00;;;;;;;18.19;51.18;97247.98;108370;1256;66115;-41
2023/11/20 06:26:42;;;;;;;2.60;2.10;;;;;;;18.19;51.23;97252.80;105583;1256;72435;-40
2023/11/20 06:29:09;;;;;;;2.30;2.00;;;;;;;18.20;51.27;97252.96;105566;1256;61139;-40
2023/11/20 06:31:36;;;;;;;1.80;1.70;;;;;;;18.20;51.43;97253.27;105418;1257;61410;-41
2023/11/20 06:34:03;;;;;;;2.70;2.30;;;;;;;18.21;51.50;97257.30;105418;1259;74359;-40
2023/11/20 06:36:30;;;;;;;1.90;1.80;;;;;;;18.21;51.55;97259.88;105551;1256;66104;-40
2023/11/20 06:39:00;;;;;;;5.20;2.00;;;;;;;18.22;51.65;97261.84;105635;1257;72601;-39
2023/11/20 06:41:29;;;;;;;6.60;1.90;;;;;;;18.23;51.72;97261.62;105479;1259;62580;-40
2023/11/20 06:43:55;;;;;;;4.60;2.10;;;;;;;18.22;51.73;97261.30;105293;1257;61395;-39
2023/11/20 06:46:22;;;;;;;2.70;1.80;;;;;;;18.23;51.74;97259.77;105434;1255;75224;-39
2023/11/20 06:48:49;;;;;;;2.50;2.20;;;;;;;18.24;51.87;97260.39;105416;1259;66904;-40
2023/11/20 06:51:16;;;;;;;2.70;2.10;;;;;;;18.24;52.03;97263.03;105281;1257;73813;-39
2023/11/20 06:53:45;;;;;;;4.30;2.00;;;;;;;18.24;52.13;97259.09;105338;1260;61263;-39
2023/11/20 06:56:16;;;;;;;3.10;2.10;;;;;;;18.24;52.27;97256.77;105423;1257;61802;-41
2023/11/20 06:58:43;;;;;;;3.30;2.20;;;;;;;18.25;52.35;97254.14;105323;1255;73411;-39
2023/11/20 07:01:10;;;;;;;4.30;2.50;;;;;;;18.25;52.37;97254.44;105463;1259;66073;-39
2023/11/20 07:03:39;;;;;;;3.10;2.40;;;;;;;18.25;52.37;97257.78;105290;1257;72609;-38
2023/11/20 07:06:09;;;;;;;3.00;2.10;;;;;;;18.26;52.32;97257.63;105463;1259;61244;-39
2023/11/20 07:08:36;;;;;;;2.30;2.10;;;;;;;18.26;52.10;97252.76;105351;1256;61170;-40
2023/11/20 07:11:04;;;;;;;2.40;1.90;;;;;;;18.26;52.07;97253.54;105333;1258;75320;-40
2023/11/20 07:13:30;;;;;;;2.60;2.00;;;;;;;18.26;52.12;97248.12;105395;1259;66137;-39
2023/11/20 07:16:00;;;;;;;3.40;2.40;;;;;;;18.27;52.22;97243.96;105443;1257;72481;-40
2023/11/20 07:18:27;;;;;;;2.70;2.30;;;;;;;18.27;52.29;97243.34;105219;1259;61257;-39
2023/11/20 07:20:54;;;;;;;3.50;2.40;;;;;;;18.28;52.31;97242.59;105385;1257;61288;-40
2023/11/20 07:23:21;;;;;;;3.10;2.00;;;;;;;18.28;52.25;97241.98;106018;1256;74859;-39
2023/11/20 07:25:48;;;;;;;2.40;2.20;;;;;;;18.29;52.22;97244.54;105274;1260;66274;-40
2023/11/20 07:28:15;;;;;;;3.10;2.30;;;;;;;18.29;52.17;97243.85;105200;1257;72641;-39
2023/11/20 07:30:43;;;;;;;2.90;2.20;;;;;;;18.29;52.13;97243.30;105238;1260;61352;-39
2023/11/20 07:33:11;;;;;;;2.50;1.90;;;;;;;18.29;52.12;97245.79;106694;1256;59723;-40
2023/11/20 07:35:38;;;;;;;2.50;1.90;;;;;;;18.30;52.06;97249.13;105072;1256;74828;-40
2023/11/20 07:38:05;;;;;;;3.40;2.30;;;;;;;18.29;52.10;97247.80;105063;1259;67174;-39
2023/11/20 07:40:32;;;;;;;2.60;2.30;;;;;;;18.30;52.24;97246.04;105208;1257;72568;-41
2023/11/20 07:42:59;;;;;;;3.00;2.40;;;;;;;18.30;52.53;97242.79;105478;1259;61209;-40
2023/11/20 07:45:26;;;;;;;3.90;2.00;;;;;;;18.32;52.52;97242.89;105403;1257;61376;-40
2023/11/20 07:47:53;;;;;;;4.20;2.60;;;;;;;18.32;52.57;97239.56;105220;1260;75225;-41
2023/11/20 07:50:19;;;;;;;2.90;2.30;;;;;;;18.33;52.63;97237.70;105370;1256;65519;-40
2023/11/20 07:52:46;;;;;;;3.10;2.40;;;;;;;18.33;52.63;97239.42;105337;1257;73376;-39
2023/11/20 07:55:13;;;;;;;3.20;2.80;;;;;;;18.33;52.45;97238.88;109097;1255;59340;-41
2023/11/20 07:57:41;;;;;;;3.10;2.50;;;;;;;18.34;52.45;97238.74;107134;1256;61396;-40
2023/11/20 08:00:11;;;;;;;2.50;2.20;;;;;;;18.34;52.40;97233.34;105337;1259;74384;-39
2023/11/20 08:02:41;;;;;;;2.60;2.10;;;;;;;18.35;52.32;97234.66;109134;1254;66293;-41
2023/11/20 08:05:08;;;;;;;3.80;2.30;;;;;;;18.36;52.30;97235.85;109132;1256;71709;-40
2023/11/20 08:07:35;;;;;;;5.60;2.40;;;;;;;18.36;52.17;97233.77;107854;1256;61322;-41
2023/11/20 08:10:04;;;;;;;3.10;2.20;;;;;;;18.38;52.21;97232.01;105522;1256;61241;-39
2023/11/20 08:12:33;;;;;;;3.30;2.30;;;;;;;18.38;52.04;97232.33;105325;1256;75668;-40
2023/11/20 08:14:59;;;;;;;2.80;2.20;;;;;;;18.40;52.13;97233.13;105726;1257;66848;-40
2023/11/20 08:17:26;;;;;;;2.90;2.30;;;;;;;18.39;52.04;97230.48;105175;1257;72935;-40
2023/11/20 08:40:52;;;;;;;2.40;2.20;;;;;;;18.37;52.49;97242.69;105017;1257;72182;-38
2023/11/20 08:43:20;;;;;;;2.40;2.10;;;;;;;18.37;52.52;97236.34;105539;1259;61257;-39
2023/11/20 08:46:43;;;;;;;4.70;2.20;;;;;;;18.37;52.75;97233.55;105744;1250;61359;31
2023/11/20 08:49:10;;;;;;;4.20;2.10;;;;;;;18.39;53.03;97235.21;104429;1266;73287;-36
2023/11/20 08:51:37;;;;;;;2.70;2.20;;;;;;;18.39;53.19;97224.52;104789;1271;66309;-34
2023/11/20 08:54:10;;;;;;;4.70;2.30;;;;;;;18.40;53.34;97221.21;104677;1268;73750;-39
2023/11/20 08:56:36;;;;;;;2.40;2.20;;;;;;;18.41;53.45;97224.78;104505;1271;61300;-38
2023/11/20 08:59:03;;;;;;;2.50;2.30;;;;;;;18.42;53.64;97219.69;105154;1270;61887;-37
2023/11/20 09:01:37;;;;;;;4.60;3.10;;;;;;;18.43;53.69;97221.41;104640;1266;75241;-36
2023/11/20 09:04:05;;;;;;;5.50;2.10;;;;;;;18.44;53.83;97217.18;104763;1268;66049;-36
2023/11/20 09:06:32;;;;;;;3.40;2.30;;;;;;;18.46;53.93;97216.60;104527;1273;72576;-37
2023/11/20 09:08:59;;;;;;;3.50;2.50;;;;;;;18.47;53.94;97211.60;104440;1269;61435;-39
2023/11/20 09:11:27;;;;;;;4.10;2.70;;;;;;;18.48;53.83;97206.89;104746;1269;61629;-37
2023/11/20 09:13:55;;;;;;;3.60;2.80;;;;;;;18.49;53.74;97208.47;104389;1271;75505;-37
2023/11/20 09:16:22;;;;;;;5.90;2.80;;;;;;;18.49;53.50;97209.79;104460;1268;66001;-38
2023/11/20 09:18:50;;;;;;;5.90;2.60;;;;;;;18.50;53.34;97205.23;104620;1267;72615;-39
2023/11/20 09:21:16;;;;;;;4.60;2.70;;;;;;;18.50;53.11;97196.95;104700;1271;61246;-39
2023/11/20 09:23:49;;;;;;;6.00;2.60;;;;;;;18.50;53.06;97195.00;104600;1265;61254;-38
2023/11/20 09:26:21;;;;;;;5.30;3.00;;;;;;;18.50;53.03;97189.73;104491;1267;74533;-38
2023/11/20 09:28:49;;;;;;;5.70;3.00;;;;;;;18.50;52.88;97189.58;105359;1269;67399;-39
2023/11/20 09:31:19;;;;;;;6.70;2.90;;;;;;;18.50;52.69;97187.64;104253;1269;175966;-38
2023/11/20 09:33:48;;;;;;;4.20;2.90;;;;;;;18.49;52.59;97191.56;104457;1270;62381;-39
2023/11/20 09:36:15;;;;;;;4.70;3.30;;;;;;;18.49;52.58;97184.90;104519;1265;61188;-39
2023/11/20 09:38:42;;;;;;;3.10;2.60;;;;;;;18.49;52.54;97184.14;104359;1274;74512;-38
2023/11/20 09:41:17;;;;;;;6.00;3.00;;;;;;;18.49;52.60;97184.91;104696;1269;65220;-40
2023/11/20 09:43:44;;;;;;;7.10;2.90;;;;;;;18.49;52.58;97181.20;104655;1267;72612;-38
2023/11/20 09:46:13;;;;;;;5.80;3.40;;;;;;;18.50;52.51;97187.70;104530;1271;61244;-38
2023/11/20 09:49:25;;;;;;;8.60;3.30;;;;;;;18.49;52.45;97182.59;104498;1271;61288;-37
2023/11/20 09:51:53;;;;;;;4.60;2.90;;;;;;;18.50;52.41;97188.48;104615;1271;75693;-38
2023/11/20 09:54:20;;;;;;;4.00;3.00;;;;;;;18.50;52.39;97180.23;104403;1271;65421;-37
2023/11/20 09:56:47;;;;;;;3.60;3.20;;;;;;;18.51;52.34;97178.20;104443;1267;73286;-38
2023/11/20 09:59:14;;;;;;;5.70;3.20;;;;;;;18.51;52.31;97178.20;104744;1271;61264;-38
2023/11/20 10:01:42;;;;;;;4.20;2.90;;;;;;;18.51;52.28;97180.30;104492;1271;61396;-38
2023/11/20 10:04:41;;;;;;;4.10;3.00;;;;;;;18.52;52.18;97180.14;104717;1272;74481;-38
2023/11/20 10:07:08;;;;;;;5.00;3.30;;;;;;;18.52;52.13;97178.54;104203;1272;66803;-38
2023/11/20 10:09:36;;;;;;;6.70;3.20;;;;;;;18.52;52.18;97176.05;104261;1272;72416;-38
2023/11/20 10:15:35;;;;;;;6.30;3.20;;;;;;;18.53;52.06;97174.05;104617;1266;61356;-38
2023/11/20 10:18:02;;;;;;;6.10;3.50;;;;;;;18.52;51.90;97174.89;104321;1271;75158;-37
2023/11/20 10:20:45;;;;;;;5.50;3.30;;;;;;;18.53;51.98;97172.45;104454;1268;66827;-37
2023/11/20 10:23:13;;;;;;;6.40;3.40;;;;;;;18.53;51.97;97169.73;105374;1272;72971;-37
2023/11/20 10:25:46;;;;;;;6.10;3.80;;;;;;;18.54;51.98;97172.05;104704;1271;61307;-38
2023/11/20 10:28:14;;;;;;;3.80;3.10;;;;;;;18.55;52.00;97166.58;104308;1268;61280;-37
2023/11/20 10:30:43;;;;;;;6.80;3.40;;;;;;;18.55;51.97;97169.30;104320;1271;75195;-38
2023/11/20 10:33:20;;;;;;;4.10;3.40;;;;;;;18.56;52.08;97166.36;104522;1271;65838;-37
2023/11/20 10:35:47;;;;;;;5.00;3.30;;;;;;;18.57;52.00;97165.36;104710;1268;74076;-37
2023/11/20 10:38:14;;;;;;;5.00;3.40;;;;;;;18.58;51.89;97162.05;104556;1270;61385;-38
2023/11/20 10:40:44;;;;;;;5.50;3.70;;;;;;;18.57;51.87;97159.81;104500;1271;61288;-37
2023/11/20 10:43:10;;;;;;;5.90;3.60;;;;;;;18.58;51.91;97156.72;104712;1271;75493;-38
2023/11/20 10:45:38;;;;;;;6.70;3.90;;;;;;;18.59;51.88;97157.89;104224;1273;66519;-38
2023/11/20 10:48:07;;;;;;;3.70;3.30;;;;;;;18.58;51.78;97158.12;104624;1273;73643;-38
2023/11/20 10:50:35;;;;;;;4.20;3.40;;;;;;;18.59;51.66;97157.59;104590;1269;61307;-37
2023/11/20 10:53:06;;;;;;;5.10;3.60;;;;;;;18.58;51.31;97154.71;104583;1271;61505;-37
2023/11/20 10:55:41;;;;;;;4.40;3.40;;;;;;;18.58;51.38;97151.91;104410;1272;75302;-37
2023/11/20 10:58:13;;;;;;;4.70;3.40;;;;;;;18.58;51.33;97147.42;104689;1268;66937;-37
2023/11/20 11:00:44;;;;;;;5.00;3.70;;;;;;;18.58;51.39;97145.41;104472;1271;72360;-37
2023/11/20 11:03:11;;;;;;;4.00;3.40;;;;;;;18.58;51.38;97145.19;104371;1272;61340;-37
2023/11/20 11:05:45;;;;;;;4.20;3.60;;;;;;;18.57;51.37;97138.96;104501;1270;61202;-37
2023/11/20 11:08:12;;;;;;;5.00;3.60;;;;;;;18.57;51.33;97132.14;104506;1268;75660;-38
2023/11/20 11:10:44;;;;;;;5.80;3.50;;;;;;;18.58;51.36;97129.75;104290;1270;66963;-38
2023/11/20 11:13:11;;;;;;;3.80;3.30;;;;;;;18.58;51.34;97131.30;104847;1271;72732;-39
2023/11/20 11:15:38;;;;;;;5.00;3.80;;;;;;;18.57;51.37;97123.62;104747;1270;61542;-38
2023/11/20 11:18:08;;;;;;;4.50;3.80;;;;;;;18.57;51.16;97123.98;104351;1270;61371;-38
2023/11/20 11:20:52;;;;;;;7.10;3.40;;;;;;;18.57;51.22;97123.91;105879;1267;74933;-38
2023/11/20 11:54:15;;;;;;;7.70;3.50;;;;;;;18.52;52.69;97097.88;104466;1273;72681;-38
2023/11/20 11:57:05;;;;;;;5.10;3.60;;;;;;;18.53;52.79;97099.05;104241;1272;62932;-38
2023/11/20 11:59:36;;;;;;;4.90;3.20;;;;;;;18.54;52.97;97105.50;106654;1270;61144;-37
2023/11/20 12:02:03;;;;;;;7.20;3.00;;;;;;;18.55;53.04;97102.34;104455;1268;75709;-37
2023/11/20 12:04:48;;;;;;;3.90;3.30;;;;;;;18.56;53.08;97101.82;104644;1268;66913;-38
2023/11/20 12:07:16;;;;;;;4.20;3.30;;;;;;;18.58;53.18;97099.16;105707;1270;73076;-37
2023/11/20 12:09:56;;;;;;;4.60;3.30;;;;;;;18.59;53.20;97098.94;104664;1272;61258;-36
2023/11/20 12:12:54;;;;;;;3.90;2.90;;;;;;;18.61;53.22;97098.34;104373;1268;61269;-38
2023/11/20 12:16:07;;;;;;;4.50;3.20;;;;;;;18.62;53.17;97099.91;104876;1268;73393;-37
2023/11/20 12:25:21;;;;;;;4.00;3.60;;;;;;;18.64;53.11;97098.45;104355;1268;71776;-38
2023/11/20 12:27:49;;;;;;;4.60;3.30;;;;;;;18.64;52.89;97095.52;108247;1268;60402;-38
2023/11/20 12:30:15;;;;;;;5.50;3.60;;;;;;;18.64;52.87;97102.27;105380;1270;60030;-37
2023/11/20 12:32:42;;;;;;;6.40;3.30;;;;;;;18.65;52.86;97105.85;104912;1268;74697;-37